sensor_id;sensor_type;location;lat;lon;timestamp;pressure;altitude;pressure_sealevel;temperature;humidity
5777;BME280;2914;42.668;23.346;2023-04-19T00:00:25;94108.89;;;12.69;86.82
5777;BME280;2914;42.668;23.346;2023-04-19T00:02:54;94106.08;;;12.71;86.97
5777;BME280;2914;42.668;23.346;2023-04-19T00:05:23;94105.73;;;12.74;86.79
5777;BME280;2914;42.668;23.346;2023-04-19T00:10:30;94105.73;;;12.82;87.09
5777;BME280;2914;42.668;23.346;2023-04-19T00:12:59;94101.09;;;12.80;86.66
5777;BME280;2914;42.668;23.346;2023-04-19T00:15:28;94101.94;;;12.81;86.69
5777;BME280;2914;42.668;23.346;2023-04-19T00:17:57;94098.44;;;12.76;86.72
5777;BME280;2914;42.668;23.346;2023-04-19T00:20:26;94102.27;;;12.78;86.67
5777;BME280;2914;42.668;23.346;2023-04-19T00:22:55;94098.13;;;12.79;86.51
5777;BME280;2914;42.668;23.346;2023-04-19T00:25:25;94094.33;;;12.78;86.36
5777;BME280;2914;42.668;23.346;2023-04-19T00:27:55;94095.49;;;12.75;86.20
5777;BME280;2914;42.668;23.346;2023-04-19T00:30:24;94094.48;;;12.68;86.48
5777;BME280;2914;42.668;23.346;2023-04-19T00:32:53;94091.69;;;12.69;86.81
5777;BME280;2914;42.668;23.346;2023-04-19T00:35:22;94084.23;;;12.69;87.06
5777;BME280;2914;42.668;23.346;2023-04-19T00:37:51;94087.55;;;12.71;87.23
5777;BME280;2914;42.668;23.346;2023-04-19T00:40:20;94086.41;;;12.65;87.51
5777;BME280;2914;42.668;23.346;2023-04-19T00:42:49;94087.56;;;12.63;87.75
5777;BME280;2914;42.668;23.346;2023-04-19T00:45:18;94086.06;;;12.64;86.63
5777;BME280;2914;42.668;23.346;2023-04-19T00:47:47;94086.54;;;12.68;86.37
5777;BME280;2914;42.668;23.346;2023-04-19T00:50:17;94082.73;;;12.70;86.55
5777;BME280;2914;42.668;23.346;2023-04-19T00:52:46;94079.78;;;12.73;86.63
5777;BME280;2914;42.668;23.346;2023-04-19T00:55:15;94077.14;;;12.69;86.45
5777;BME280;2914;42.668;23.346;2023-04-19T00:57:44;94080.77;;;12.72;86.39
5777;BME280;2914;42.668;23.346;2023-04-19T01:00:15;94079.11;;;12.71;86.74
5777;BME280;2914;42.668;23.346;2023-04-19T01:02:44;94076.13;;;12.70;86.60
5777;BME280;2914;42.668;23.346;2023-04-19T01:05:14;94072.66;;;12.70;86.78
5777;BME280;2914;42.668;23.346;2023-04-19T01:07:43;94074.50;;;12.61;87.31
5777;BME280;2914;42.668;23.346;2023-04-19T01:10:12;94065.55;;;12.50;88.14
5777;BME280;2914;42.668;23.346;2023-04-19T01:12:42;94066.06;;;12.41;88.26
5777;BME280;2914;42.668;23.346;2023-04-19T01:15:11;94059.95;;;12.41;88.50
5777;BME280;2914;42.668;23.346;2023-04-19T01:17:40;94062.91;;;12.42;88.42
5777;BME280;2914;42.668;23.346;2023-04-19T01:20:10;94066.23;;;12.44;88.50
5777;BME280;2914;42.668;23.346;2023-04-19T01:22:40;94063.08;;;12.48;87.66
5777;BME280;2914;42.668;23.346;2023-04-19T01:25:09;94069.52;;;12.50;87.64
5777;BME280;2914;42.668;23.346;2023-04-19T01:27:39;94074.16;;;12.56;87.31
5777;BME280;2914;42.668;23.346;2023-04-19T01:30:10;94074.16;;;12.60;87.38
5777;BME280;2914;42.668;23.346;2023-04-19T01:32:39;94068.88;;;12.56;87.35
5777;BME280;2914;42.668;23.346;2023-04-19T01:35:08;94071.01;;;12.40;88.06
5777;BME280;2914;42.668;23.346;2023-04-19T01:37:38;94064.56;;;12.34;88.69
5777;BME280;2914;42.668;23.346;2023-04-19T01:40:09;94069.85;;;12.30;88.79
5777;BME280;2914;42.668;23.346;2023-04-19T01:42:38;94060.42;;;12.28;89.33
5777;BME280;2914;42.668;23.346;2023-04-19T01:45:09;94059.95;;;12.20;89.65
5777;BME280;2914;42.668;23.346;2023-04-19T01:47:38;94062.59;;;12.32;89.67
5777;BME280;2914;42.668;23.346;2023-04-19T01:50:09;94057.78;;;12.28;90.12
5777;BME280;2914;42.668;23.346;2023-04-19T01:52:38;94055.80;;;12.13;90.92
5777;BME280;2914;42.668;23.346;2023-04-19T01:55:10;94052.80;;;12.00;91.52
5777;BME280;2914;42.668;23.346;2023-04-19T01:57:39;94049.65;;;11.96;91.92
5777;BME280;2914;42.668;23.346;2023-04-19T02:00:10;94052.73;;;11.79;93.00
5777;BME280;2914;42.668;23.346;2023-04-19T02:02:39;94052.39;;;11.78;93.39
5777;BME280;2914;42.668;23.346;2023-04-19T02:05:09;94050.90;;;11.76;93.54
5777;BME280;2914;42.668;23.346;2023-04-19T02:07:38;94045.64;;;11.88;93.08
5777;BME280;2914;42.668;23.346;2023-04-19T02:10:10;94044.00;;;11.83;93.48
5777;BME280;2914;42.668;23.346;2023-04-19T02:12:39;94048.59;;;11.77;93.64
5777;BME280;2914;42.668;23.346;2023-04-19T02:15:09;94050.41;;;11.72;94.41
5777;BME280;2914;42.668;23.346;2023-04-19T02:17:38;94051.20;;;11.64;94.88
5777;BME280;2914;42.668;23.346;2023-04-19T02:20:09;94041.94;;;11.56;95.59
5777;BME280;2914;42.668;23.346;2023-04-19T02:25:14;94041.63;;;11.63;95.72
5777;BME280;2914;42.668;23.346;2023-04-19T02:30:29;94033.98;;;11.44;96.48
5777;BME280;2914;42.668;23.346;2023-04-19T02:32:58;94032.26;;;11.26;97.30
5777;BME280;2914;42.668;23.346;2023-04-19T02:35:27;94031.30;;;11.31;97.37
5777;BME280;2914;42.668;23.346;2023-04-19T02:37:56;94035.76;;;11.31;97.46
5777;BME280;2914;42.668;23.346;2023-04-19T02:40:25;94040.89;;;11.36;97.37
5777;BME280;2914;42.668;23.346;2023-04-19T02:42:54;94041.69;;;11.33;97.12
5777;BME280;2914;42.668;23.346;2023-04-19T02:45:23;94050.58;;;11.28;97.59
5777;BME280;2914;42.668;23.346;2023-04-19T02:47:52;94039.55;;;11.32;97.45
5777;BME280;2914;42.668;23.346;2023-04-19T02:50:21;94043.55;;;11.41;97.02
5777;BME280;2914;42.668;23.346;2023-04-19T02:52:50;94039.08;;;11.41;97.57
5777;BME280;2914;42.668;23.346;2023-04-19T02:55:19;94034.41;;;11.23;98.14
5777;BME280;2914;42.668;23.346;2023-04-19T02:57:48;94038.88;;;11.30;98.27
5777;BME280;2914;42.668;23.346;2023-04-19T03:00:18;94041.02;;;11.27;98.22
5777;BME280;2914;42.668;23.346;2023-04-19T03:02:47;94039.52;;;11.24;97.51
5777;BME280;2914;42.668;23.346;2023-04-19T03:05:16;94043.16;;;11.27;97.38
5777;BME280;2914;42.668;23.346;2023-04-19T03:07:45;94045.38;;;11.10;97.52
5777;BME280;2914;42.668;23.346;2023-04-19T03:10:14;94045.09;;;11.13;97.78
5777;BME280;2914;42.668;23.346;2023-04-19T03:12:43;94044.13;;;11.26;97.47
5777;BME280;2914;42.668;23.346;2023-04-19T03:15:12;94040.16;;;11.22;97.26
5777;BME280;2914;42.668;23.346;2023-04-19T03:17:42;94034.28;;;11.32;96.76
5777;BME280;2914;42.668;23.346;2023-04-19T03:20:12;94035.94;;;11.33;96.54
5777;BME280;2914;42.668;23.346;2023-04-19T03:22:41;94032.42;;;11.25;96.97
5777;BME280;2914;42.668;23.346;2023-04-19T03:25:10;94038.00;;;11.17;97.04
5777;BME280;2914;42.668;23.346;2023-04-19T03:27:40;94033.88;;;11.19;97.03
5777;BME280;2914;42.668;23.346;2023-04-19T03:30:11;94032.92;;;11.24;96.46
5777;BME280;2914;42.668;23.346;2023-04-19T03:35:23;94034.60;;;11.29;97.36
5777;BME280;2914;42.668;23.346;2023-04-19T03:40:32;94039.86;;;11.25;96.30
5777;BME280;2914;42.668;23.346;2023-04-19T03:43:01;94044.42;;;11.15;96.50
5777;BME280;2914;42.668;23.346;2023-04-19T03:45:30;94041.38;;;11.01;96.89
5777;BME280;2914;42.668;23.346;2023-04-19T03:47:59;94042.03;;;10.95;97.35
5777;BME280;2914;42.668;23.346;2023-04-19T03:50:28;94038.37;;;10.88;97.81
5777;BME280;2914;42.668;23.346;2023-04-19T03:52:57;94036.31;;;10.78;98.43
5777;BME280;2914;42.668;23.346;2023-04-19T03:55:26;94031.56;;;10.81;98.15
5777;BME280;2914;42.668;23.346;2023-04-19T03:57:55;94034.05;;;10.83;98.18
5777;BME280;2914;42.668;23.346;2023-04-19T04:00:24;94034.84;;;10.79;98.19
5777;BME280;2914;42.668;23.346;2023-04-19T04:02:55;94032.33;;;10.74;98.65
5777;BME280;2914;42.668;23.346;2023-04-19T04:08:11;94023.55;;;10.65;99.68
5777;BME280;2914;42.668;23.346;2023-04-19T04:10:41;94029.22;;;10.52;100.00
5777;BME280;2914;42.668;23.346;2023-04-19T04:13:10;94027.12;;;10.56;100.00
5777;BME280;2914;42.668;23.346;2023-04-19T04:15:39;94038.14;;;10.51;100.00
5777;BME280;2914;42.668;23.346;2023-04-19T04:20:52;94040.48;;;10.58;100.00
5777;BME280;2914;42.668;23.346;2023-04-19T04:23:23;94045.61;;;10.38;100.00
5777;BME280;2914;42.668;23.346;2023-04-19T04:25:57;94046.65;;;10.45;100.00
5777;BME280;2914;42.668;23.346;2023-04-19T04:28:28;94049.60;;;10.42;100.00
5777;BME280;2914;42.668;23.346;2023-04-19T04:30:58;94043.23;;;10.30;100.00
5777;BME280;2914;42.668;23.346;2023-04-19T04:33:27;94048.16;;;10.29;100.00
5777;BME280;2914;42.668;23.346;2023-04-19T04:36:08;94050.23;;;10.40;100.00
5777;BME280;2914;42.668;23.346;2023-04-19T04:38:38;94051.98;;;10.53;100.00
5777;BME280;2914;42.668;23.346;2023-04-19T04:41:08;94052.36;;;10.58;100.00
5777;BME280;2914;42.668;23.346;2023-04-19T04:43:39;94055.94;;;10.53;100.00
5777;BME280;2914;42.668;23.346;2023-04-19T04:46:09;94048.19;;;10.51;100.00
5777;BME280;2914;42.668;23.346;2023-04-19T04:48:38;94055.84;;;10.41;100.00
5777;BME280;2914;42.668;23.346;2023-04-19T04:51:07;94055.22;;;10.43;100.00
5777;BME280;2914;42.668;23.346;2023-04-19T04:53:36;94053.27;;;10.49;100.00
5777;BME280;2914;42.668;23.346;2023-04-19T04:56:06;94053.44;;;10.74;100.00
5777;BME280;2914;42.668;23.346;2023-04-19T04:58:36;94054.39;;;10.99;100.00
5777;BME280;2914;42.668;23.346;2023-04-19T05:01:05;94054.09;;;11.36;100.00
5777;BME280;2914;42.668;23.346;2023-04-19T05:03:34;94044.95;;;11.65;100.00
5777;BME280;2914;42.668;23.346;2023-04-19T05:08:39;94053.47;;;11.51;96.02
5777;BME280;2914;42.668;23.346;2023-04-19T05:11:08;94062.67;;;11.38;95.79
5777;BME280;2914;42.668;23.346;2023-04-19T05:13:37;94059.23;;;11.42;100.00
5777;BME280;2914;42.668;23.346;2023-04-19T05:16:07;94062.42;;;11.54;100.00
5777;BME280;2914;42.668;23.346;2023-04-19T05:18:36;94054.95;;;11.49;100.00
5777;BME280;2914;42.668;23.346;2023-04-19T05:21:05;94062.42;;;11.54;100.00
5777;BME280;2914;42.668;23.346;2023-04-19T05:23:37;94064.27;;;11.70;99.91
5777;BME280;2914;42.668;23.346;2023-04-19T05:26:06;94061.34;;;11.94;100.00
5777;BME280;2914;42.668;23.346;2023-04-19T05:28:37;94067.86;;;12.08;99.50
5777;BME280;2914;42.668;23.346;2023-04-19T05:31:06;94066.95;;;11.91;93.07
5777;BME280;2914;42.668;23.346;2023-04-19T05:33:35;94072.36;;;11.68;93.55
5777;BME280;2914;42.668;23.346;2023-04-19T05:36:06;94074.62;;;11.59;94.07
5777;BME280;2914;42.668;23.346;2023-04-19T05:38:35;94076.72;;;11.39;95.36
5777;BME280;2914;42.668;23.346;2023-04-19T05:41:05;94078.16;;;11.29;95.94
5777;BME280;2914;42.668;23.346;2023-04-19T05:43:34;94073.63;;;11.13;96.55
5777;BME280;2914;42.668;23.346;2023-04-19T05:46:02;94076.40;;;11.08;97.67
5777;BME280;2914;42.668;23.346;2023-04-19T05:48:32;94072.58;;;11.02;98.16
5777;BME280;2914;42.668;23.346;2023-04-19T05:51:00;94069.71;;;10.91;98.79
5777;BME280;2914;42.668;23.346;2023-04-19T05:53:30;94071.73;;;11.01;98.72
5777;BME280;2914;42.668;23.346;2023-04-19T05:55:59;94067.80;;;11.06;98.72
5777;BME280;2914;42.668;23.346;2023-04-19T05:58:28;94070.12;;;11.39;100.00
5777;BME280;2914;42.668;23.346;2023-04-19T06:00:57;94073.11;;;11.52;100.00
5777;BME280;2914;42.668;23.346;2023-04-19T06:03:27;94073.36;;;11.76;100.00
5777;BME280;2914;42.668;23.346;2023-04-19T06:05:56;94073.80;;;11.54;96.76
5777;BME280;2914;42.668;23.346;2023-04-19T06:08:25;94079.05;;;11.46;96.59
5777;BME280;2914;42.668;23.346;2023-04-19T06:10:54;94079.39;;;11.47;96.17
5777;BME280;2914;42.668;23.346;2023-04-19T06:13:23;94079.67;;;11.40;96.46
5777;BME280;2914;42.668;23.346;2023-04-19T06:15:52;94071.87;;;11.30;97.11
5777;BME280;2914;42.668;23.346;2023-04-19T06:18:21;94076.99;;;11.32;97.15
5777;BME280;2914;42.668;23.346;2023-04-19T06:20:50;94076.64;;;11.23;97.87
5777;BME280;2914;42.668;23.346;2023-04-19T06:23:20;94079.80;;;11.30;97.71
5777;BME280;2914;42.668;23.346;2023-04-19T06:25:50;94076.47;;;11.20;97.79
5777;BME280;2914;42.668;23.346;2023-04-19T06:28:18;94079.95;;;11.29;97.91
5777;BME280;2914;42.668;23.346;2023-04-19T06:30:47;94081.30;;;11.33;97.60
5777;BME280;2914;42.668;23.346;2023-04-19T06:33:17;94082.23;;;11.24;98.03
5777;BME280;2914;42.668;23.346;2023-04-19T06:38:22;94075.97;;;11.63;97.31
5777;BME280;2914;42.668;23.346;2023-04-19T06:43:28;94078.56;;;11.51;97.46
5777;BME280;2914;42.668;23.346;2023-04-19T06:46:01;94079.91;;;11.59;96.39
5777;BME280;2914;42.668;23.346;2023-04-19T06:48:32;94080.41;;;11.59;96.48
5777;BME280;2914;42.668;23.346;2023-04-19T06:51:01;94082.41;;;11.69;95.73
5777;BME280;2914;42.668;23.346;2023-04-19T06:53:30;94086.03;;;11.56;96.00
5777;BME280;2914;42.668;23.346;2023-04-19T06:56:00;94082.28;;;11.70;95.61
5777;BME280;2914;42.668;23.346;2023-04-19T06:58:29;94091.05;;;11.79;95.16
5777;BME280;2914;42.668;23.346;2023-04-19T07:00:59;94083.92;;;11.76;94.92
5777;BME280;2914;42.668;23.346;2023-04-19T07:03:28;94092.18;;;11.73;94.85
5777;BME280;2914;42.668;23.346;2023-04-19T07:05:57;94091.67;;;11.73;94.90
5777;BME280;2914;42.668;23.346;2023-04-19T07:08:27;94093.83;;;11.69;94.59
5777;BME280;2914;42.668;23.346;2023-04-19T07:10:56;94098.30;;;11.77;94.18
5777;BME280;2914;42.668;23.346;2023-04-19T07:13:25;94094.37;;;11.94;93.93
5777;BME280;2914;42.668;23.346;2023-04-19T07:15:54;94095.59;;;11.95;93.60
5777;BME280;2914;42.668;23.346;2023-04-19T07:18:23;94097.56;;;11.97;93.50
5777;BME280;2914;42.668;23.346;2023-04-19T07:20:52;94096.52;;;11.86;93.61
5777;BME280;2914;42.668;23.346;2023-04-19T07:23:21;94098.66;;;11.86;93.75
5777;BME280;2914;42.668;23.346;2023-04-19T07:25:50;94099.87;;;11.96;93.29
5777;BME280;2914;42.668;23.346;2023-04-19T07:28:19;94100.73;;;12.05;92.95
5777;BME280;2914;42.668;23.346;2023-04-19T07:30:48;94093.44;;;12.03;93.01
5777;BME280;2914;42.668;23.346;2023-04-19T07:33:17;94100.23;;;12.05;92.91
5777;BME280;2914;42.668;23.346;2023-04-19T07:35:46;94106.84;;;12.10;92.72
5777;BME280;2914;42.668;23.346;2023-04-19T07:40:59;94095.64;;;12.20;92.22
5777;BME280;2914;42.668;23.346;2023-04-19T07:43:29;94094.79;;;12.15;92.56
5777;BME280;2914;42.668;23.346;2023-04-19T07:45:58;94096.59;;;12.02;92.56
5777;BME280;2914;42.668;23.346;2023-04-19T07:48:27;94095.09;;;11.96;92.80
5777;BME280;2914;42.668;23.346;2023-04-19T07:50:57;94100.55;;;11.98;93.29
5777;BME280;2914;42.668;23.346;2023-04-19T07:53:27;94099.39;;;11.97;93.28
5777;BME280;2914;42.668;23.346;2023-04-19T07:55:56;94106.65;;;11.99;93.04
5777;BME280;2914;42.668;23.346;2023-04-19T07:58:25;94103.53;;;11.99;92.42
5777;BME280;2914;42.668;23.346;2023-04-19T08:00:54;94086.61;;;11.92;93.36
5777;BME280;2914;42.668;23.346;2023-04-19T08:03:23;94095.11;;;12.04;92.89
5777;BME280;2914;42.668;23.346;2023-04-19T08:08:29;94105.86;;;12.11;92.96
5777;BME280;2914;42.668;23.346;2023-04-19T08:10:58;94102.88;;;12.14;92.02
5777;BME280;2914;42.668;23.346;2023-04-19T08:13:29;94100.05;;;12.03;92.30
5777;BME280;2914;42.668;23.346;2023-04-19T08:15:58;94102.70;;;12.07;91.93
5777;BME280;2914;42.668;23.346;2023-04-19T08:21:05;94101.22;;;12.13;92.78
5777;BME280;2914;42.668;23.346;2023-04-19T08:23:35;94096.61;;;12.11;92.67
5777;BME280;2914;42.668;23.346;2023-04-19T08:26:04;94103.21;;;12.07;92.63
5777;BME280;2914;42.668;23.346;2023-04-19T08:28:33;94102.25;;;12.24;92.19
5777;BME280;2914;42.668;23.346;2023-04-19T08:31:05;94096.29;;;12.22;91.29
5777;BME280;2914;42.668;23.346;2023-04-19T08:33:34;94097.44;;;12.19;90.90
5777;BME280;2914;42.668;23.346;2023-04-19T08:36:03;94093.47;;;12.19;90.88
5777;BME280;2914;42.668;23.346;2023-04-19T08:38:33;94095.66;;;12.32;90.56
5777;BME280;2914;42.668;23.346;2023-04-19T08:41:02;94092.50;;;12.29;91.07
5777;BME280;2914;42.668;23.346;2023-04-19T08:43:34;94092.16;;;12.24;91.10
5777;BME280;2914;42.668;23.346;2023-04-19T08:46:05;94091.34;;;12.27;91.12
5777;BME280;2914;42.668;23.346;2023-04-19T08:48:35;94086.22;;;12.26;91.83
5777;BME280;2914;42.668;23.346;2023-04-19T08:51:05;94084.40;;;12.34;90.28
5777;BME280;2914;42.668;23.346;2023-04-19T08:53:34;94088.36;;;12.30;90.88
5777;BME280;2914;42.668;23.346;2023-04-19T08:56:07;94084.06;;;12.33;90.27
5777;BME280;2914;42.668;23.346;2023-04-19T08:58:36;94089.34;;;12.29;89.74
5777;BME280;2914;42.668;23.346;2023-04-19T09:01:06;94081.11;;;12.36;89.08
5777;BME280;2914;42.668;23.346;2023-04-19T09:03:42;94084.06;;;12.29;89.09
5777;BME280;2914;42.668;23.346;2023-04-19T09:06:13;94080.27;;;12.32;88.33
5777;BME280;2914;42.668;23.346;2023-04-19T09:08:43;94076.81;;;12.48;88.67
5777;BME280;2914;42.668;23.346;2023-04-19T09:11:12;94083.42;;;12.52;88.70
5777;BME280;2914;42.668;23.346;2023-04-19T09:13:41;94074.64;;;12.55;88.86
5777;BME280;2914;42.668;23.346;2023-04-19T09:16:23;94072.33;;;12.48;87.40
5777;BME280;2914;42.668;23.346;2023-04-19T09:18:56;94079.28;;;12.62;87.37
5777;BME280;2914;42.668;23.346;2023-04-19T09:21:29;94070.66;;;12.68;87.28
5777;BME280;2914;42.668;23.346;2023-04-19T09:23:59;94074.14;;;12.77;85.60
5777;BME280;2914;42.668;23.346;2023-04-19T09:26:28;94072.98;;;12.87;84.04
5777;BME280;2914;42.668;23.346;2023-04-19T09:28:58;94075.11;;;12.92;84.37
5777;BME280;2914;42.668;23.346;2023-04-19T09:31:29;94072.81;;;12.89;84.79
5777;BME280;2914;42.668;23.346;2023-04-19T09:34:08;94071.63;;;13.00;86.08
5777;BME280;2914;42.668;23.346;2023-04-19T09:36:29;94071.09;;;13.17;84.93
5777;BME280;2914;42.668;23.346;2023-04-19T09:39:00;94073.20;;;13.26;83.39
5777;BME280;2914;42.668;23.346;2023-04-19T09:41:29;94075.03;;;13.37;82.81
5777;BME280;2914;42.668;23.346;2023-04-19T09:44:10;94076.16;;;13.43;82.44
5777;BME280;2914;42.668;23.346;2023-04-19T09:46:42;94067.05;;;13.46;82.29
5777;BME280;2914;42.668;23.346;2023-04-19T09:49:19;94057.41;;;13.53;82.35
5777;BME280;2914;42.668;23.346;2023-04-19T09:51:51;94060.66;;;13.71;80.90
5777;BME280;2914;42.668;23.346;2023-04-19T09:54:22;94052.95;;;13.89;79.36
5777;BME280;2914;42.668;23.346;2023-04-19T09:56:51;94041.95;;;13.96;78.32
5777;BME280;2914;42.668;23.346;2023-04-19T09:59:20;94046.24;;;14.01;77.48
5777;BME280;2914;42.668;23.346;2023-04-19T10:01:53;94049.34;;;14.05;77.99
5777;BME280;2914;42.668;23.346;2023-04-19T10:04:23;94038.39;;;13.85;76.38
5777;BME280;2914;42.668;23.346;2023-04-19T10:06:54;94043.89;;;14.02;77.14
5777;BME280;2914;42.668;23.346;2023-04-19T10:09:23;94036.24;;;14.07;75.88
5777;BME280;2914;42.668;23.346;2023-04-19T10:11:53;94039.80;;;14.19;75.90
5777;BME280;2914;42.668;23.346;2023-04-19T10:14:25;94047.91;;;14.21;74.84
5777;BME280;2914;42.668;23.346;2023-04-19T10:16:56;94039.59;;;14.05;73.84
5777;BME280;2914;42.668;23.346;2023-04-19T10:19:26;94039.44;;;14.03;74.59
5777;BME280;2914;42.668;23.346;2023-04-19T10:21:56;94039.77;;;14.00;75.58
5777;BME280;2914;42.668;23.346;2023-04-19T10:24:25;94035.34;;;14.19;77.13
5777;BME280;2914;42.668;23.346;2023-04-19T10:27:08;94035.25;;;14.32;76.32
5777;BME280;2914;42.668;23.346;2023-04-19T10:29:59;94034.92;;;14.31;75.84
5777;BME280;2914;42.668;23.346;2023-04-19T10:32:37;94022.80;;;14.32;75.87
5777;BME280;2914;42.668;23.346;2023-04-19T10:35:10;94030.85;;;14.20;77.11
5777;BME280;2914;42.668;23.346;2023-04-19T10:37:41;94023.08;;;14.18;75.55
5777;BME280;2914;42.668;23.346;2023-04-19T10:40:12;94025.34;;;14.25;75.83
5777;BME280;2914;42.668;23.346;2023-04-19T10:43:16;94022.29;;;14.33;74.87
5777;BME280;2914;42.668;23.346;2023-04-19T10:45:45;94015.70;;;14.48;76.58
5777;BME280;2914;42.668;23.346;2023-04-19T10:48:39;94011.31;;;14.59;74.89
5777;BME280;2914;42.668;23.346;2023-04-19T10:51:15;94007.77;;;14.67;72.68
5777;BME280;2914;42.668;23.346;2023-04-19T10:53:51;94006.73;;;14.72;71.99
5777;BME280;2914;42.668;23.346;2023-04-19T10:56:22;94009.06;;;14.71;72.52
5777;BME280;2914;42.668;23.346;2023-04-19T10:59:15;94002.46;;;14.67;71.58
5777;BME280;2914;42.668;23.346;2023-04-19T11:01:53;94000.09;;;14.72;69.43
5777;BME280;2914;42.668;23.346;2023-04-19T11:07:03;93998.66;;;14.65;72.74
5777;BME280;2914;42.668;23.346;2023-04-19T11:09:34;93999.40;;;14.74;71.31
5777;BME280;2914;42.668;23.346;2023-04-19T11:12:04;93998.17;;;14.81;71.54
5777;BME280;2914;42.668;23.346;2023-04-19T11:14:36;93995.30;;;14.86;70.73
5777;BME280;2914;42.668;23.346;2023-04-19T11:17:13;93995.66;;;14.83;69.16
5777;BME280;2914;42.668;23.346;2023-04-19T11:19:44;93991.32;;;14.71;68.92
5777;BME280;2914;42.668;23.346;2023-04-19T11:22:13;93993.56;;;14.79;67.73
5777;BME280;2914;42.668;23.346;2023-04-19T11:24:46;93990.66;;;14.69;68.29
5777;BME280;2914;42.668;23.346;2023-04-19T11:27:15;93997.85;;;14.65;68.05
5777;BME280;2914;42.668;23.346;2023-04-19T11:29:44;93993.54;;;14.64;68.80
5777;BME280;2914;42.668;23.346;2023-04-19T11:32:13;93981.74;;;14.66;69.10
5777;BME280;2914;42.668;23.346;2023-04-19T11:34:42;93997.48;;;14.68;67.46
5777;BME280;2914;42.668;23.346;2023-04-19T11:37:11;93993.36;;;14.65;66.14
5777;BME280;2914;42.668;23.346;2023-04-19T11:39:50;93991.88;;;14.63;65.75
5777;BME280;2914;42.668;23.346;2023-04-19T11:42:19;93987.49;;;14.70;65.94
5777;BME280;2914;42.668;23.346;2023-04-19T11:47:29;93983.31;;;15.05;66.53
5777;BME280;2914;42.668;23.346;2023-04-19T11:52:49;93982.43;;;15.39;65.77
5777;BME280;2914;42.668;23.346;2023-04-19T11:55:20;93979.86;;;15.46;62.75
5777;BME280;2914;42.668;23.346;2023-04-19T11:57:49;93977.49;;;15.47;62.27
5777;BME280;2914;42.668;23.346;2023-04-19T12:00:26;93979.15;;;15.48;61.70
5777;BME280;2914;42.668;23.346;2023-04-19T12:02:55;93975.16;;;15.48;61.41
5777;BME280;2914;42.668;23.346;2023-04-19T12:05:25;93974.48;;;15.50;60.54
5777;BME280;2914;42.668;23.346;2023-04-19T12:08:01;93972.53;;;15.58;60.19
5777;BME280;2914;42.668;23.346;2023-04-19T12:10:32;93968.56;;;15.69;60.72
5777;BME280;2914;42.668;23.346;2023-04-19T12:13:01;93975.09;;;15.77;60.30
5777;BME280;2914;42.668;23.346;2023-04-19T12:15:45;93969.56;;;15.83;61.49
5777;BME280;2914;42.668;23.346;2023-04-19T12:18:15;93969.83;;;15.88;58.24
5777;BME280;2914;42.668;23.346;2023-04-19T12:20:47;93963.23;;;15.84;57.33
5777;BME280;2914;42.668;23.346;2023-04-19T12:23:17;93963.47;;;15.89;56.68
5777;BME280;2914;42.668;23.346;2023-04-19T12:25:48;93967.03;;;15.86;57.82
5777;BME280;2914;42.668;23.346;2023-04-19T12:28:17;93959.36;;;15.98;57.92
5777;BME280;2914;42.668;23.346;2023-04-19T12:30:46;93965.45;;;15.91;57.08
5777;BME280;2914;42.668;23.346;2023-04-19T12:33:34;93969.19;;;15.97;58.24
5777;BME280;2914;42.668;23.346;2023-04-19T12:36:03;93949.57;;;15.72;61.60
5777;BME280;2914;42.668;23.346;2023-04-19T12:38:44;93952.82;;;15.78;63.54
5777;BME280;2914;42.668;23.346;2023-04-19T12:41:21;93951.83;;;15.90;62.97
5777;BME280;2914;42.668;23.346;2023-04-19T12:43:50;93955.75;;;15.94;61.32
5777;BME280;2914;42.668;23.346;2023-04-19T12:46:19;93951.08;;;15.86;60.95
5777;BME280;2914;42.668;23.346;2023-04-19T12:48:48;93949.89;;;15.73;62.03
5777;BME280;2914;42.668;23.346;2023-04-19T12:51:17;93954.55;;;15.60;63.25
5777;BME280;2914;42.668;23.346;2023-04-19T12:53:48;93949.69;;;15.64;64.05
5777;BME280;2914;42.668;23.346;2023-04-19T12:56:18;93949.42;;;15.59;62.88
5777;BME280;2914;42.668;23.346;2023-04-19T12:58:47;93953.58;;;15.47;64.29
5777;BME280;2914;42.668;23.346;2023-04-19T13:01:17;93943.92;;;15.50;65.48
5777;BME280;2914;42.668;23.346;2023-04-19T13:03:46;93958.67;;;15.63;63.48
5777;BME280;2914;42.668;23.346;2023-04-19T13:06:15;93954.00;;;15.65;62.90
5777;BME280;2914;42.668;23.346;2023-04-19T13:08:44;93967.89;;;15.56;63.41
5777;BME280;2914;42.668;23.346;2023-04-19T13:11:13;93976.17;;;15.21;68.62
5777;BME280;2914;42.668;23.346;2023-04-19T13:13:42;93975.24;;;15.14;71.56
5777;BME280;2914;42.668;23.346;2023-04-19T13:16:11;93991.23;;;14.80;72.95
5777;BME280;2914;42.668;23.346;2023-04-19T13:18:40;93980.25;;;14.45;72.42
5777;BME280;2914;42.668;23.346;2023-04-19T13:21:09;93991.83;;;14.10;72.52
5777;BME280;2914;42.668;23.346;2023-04-19T13:23:38;93995.35;;;14.02;72.12
5777;BME280;2914;42.668;23.346;2023-04-19T13:28:51;93995.94;;;13.62;75.40
5777;BME280;2914;42.668;23.346;2023-04-19T13:31:20;94001.63;;;13.46;75.79
5777;BME280;2914;42.668;23.346;2023-04-19T13:33:49;93990.17;;;13.54;75.91
5777;BME280;2914;42.668;23.346;2023-04-19T13:36:18;93989.16;;;13.59;76.63
5777;BME280;2914;42.668;23.346;2023-04-19T13:38:48;93988.23;;;13.48;79.02
5777;BME280;2914;42.668;23.346;2023-04-19T13:41:18;93983.98;;;13.30;81.44
5777;BME280;2914;42.668;23.346;2023-04-19T13:43:47;93974.86;;;13.41;81.03
5777;BME280;2914;42.668;23.346;2023-04-19T13:46:17;93979.01;;;13.39;80.01
5777;BME280;2914;42.668;23.346;2023-04-19T13:48:46;93978.13;;;13.47;79.59
5777;BME280;2914;42.668;23.346;2023-04-19T13:51:15;93979.02;;;13.63;79.03
5777;BME280;2914;42.668;23.346;2023-04-19T14:09:28;93981.61;;;13.98;80.29
5777;BME280;2914;42.668;23.346;2023-04-19T14:11:57;93979.92;;;14.05;78.10
5777;BME280;2914;42.668;23.346;2023-04-19T14:14:27;93977.27;;;14.05;76.52
5777;BME280;2914;42.668;23.346;2023-04-19T14:16:56;93976.88;;;14.13;77.64
5777;BME280;2914;42.668;23.346;2023-04-19T14:19:25;93979.13;;;14.20;76.76
5777;BME280;2914;42.668;23.346;2023-04-19T14:21:54;93983.66;;;14.15;76.44
5777;BME280;2914;42.668;23.346;2023-04-19T14:24:23;93979.25;;;14.27;75.42
5777;BME280;2914;42.668;23.346;2023-04-19T14:26:53;93976.99;;;14.19;75.77